Ana Sayfa
METAR-TAF:

METAR-TAF

Havaalanları :

Caracas, Venezuela

Enlem: 10-36N, Boylam: 066-59W, yükseklik: 43 m

Güncel hava durumu gözlemi

Rapor saat 14:02 UTC de 1 saat ve 9 dakika önce yapıldı.
Rüzgar kuzey/kuzeydoğudan 4 kt
Sıcaklık
Basınç 1012 hPa

METAR: SVMI 041402Z AUTO 03004KT NCD ///// Q1012

Saat: 11:11 (15:11 UTC)

Tahmin

Rapor saat 10:00 UTC de 5 saat ve 11 dakika önce yapıldı.
Ayın 04'si saat 12 UTC'den ayın 05'si saat 12 UTC'ye kadar geçerli Tahmin
Rüzgar doğudan 3 kt
Görüş mesafesi 10 km veya daha fazla
1600 ft yükseklikte parçalı bulutlu
Dönüşüyor
ayın 04'si saat 12 UTC'den ayın 04'si saat 16 UTC'ye kadar
Rüzgar güneydoğudan 3 kt
Görüş mesafesi 10 km veya daha fazla
7000 ft yükseklikte parçalı bulutlu

TAF: SVMI 041000Z 0412/0512 09003KT 9999 SCT016 TX29/19Z TN23/09Z BECMG 0412/0416 14003KT 9999 SCT070

4.000'den fazla havaalanı için hava durumu gözlemleri ve tahminleri (METAR ve TAF raporları).

Kullanılabilir istasyonlar harita üzerinde sarı ve kırmızı noktalarla gösterilir.

İstasyonun adını görmek için fareyi noktanın üzerinde gezdirin.

Sonrasında hava gözlem ve tahminlerini görmek için tıklayın.

Haritayı değiştirmek için: yaklaştırmak için siyah artı işaretli yeşil düğmeye ve uzaklaştırmak için de eksi işaretli düğmeye hızla tıklayın; bitişik haritalar için yeşil okları kullanın.


METAR-TAF: